Time;durP1;ratioP1;P1;durP2;ratioP2;P2;SDS_P1;SDS_P2;PMS_P1;PMS_P2;Temp;Humidity;BMP_temperature;BMP_pressure;BME280_temperature;BME280_humidity;BME280_pressure;Samples;Min_cycle;Max_cycle;Signal;HPM_P1;HPM_P2
2022/11/14 00:02:18;;;;;;;0.98;0.98;;;6.40;99.90;;;;;;5066047;28;20032;-73
2022/11/14 00:04:47;;;;;;;0.85;0.85;;;6.40;99.90;;;;;;5053642;28;20476;-73
2022/11/14 00:07:13;;;;;;;0.70;0.70;;;6.30;99.90;;;;;;5058801;28;20032;-74
2022/11/14 00:09:41;;;;;;;1.17;1.17;;;6.50;99.90;;;;;;5073711;28;20032;-73
2022/11/14 00:12:11;;;;;;;0.70;0.70;;;6.50;99.90;;;;;;5073750;28;20016;-74
2022/11/14 00:14:37;;;;;;;1.65;1.58;;;6.60;99.90;;;;;;5072077;28;20020;-75
2022/11/14 00:17:04;;;;;;;0.93;0.93;;;6.60;99.90;;;;;;5073360;28;20108;-73
2022/11/14 00:19:30;;;;;;;1.67;1.00;;;6.70;99.90;;;;;;5073358;28;20389;-74
2022/11/14 00:21:56;;;;;;;0.60;0.60;;;6.60;99.90;;;;;;5064649;28;20024;-74
2022/11/14 00:24:21;;;;;;;1.65;1.35;;;6.70;99.90;;;;;;5067820;28;20416;-73
2022/11/14 00:26:47;;;;;;;0.60;0.60;;;6.80;99.90;;;;;;5073103;28;20035;-74
2022/11/14 00:29:14;;;;;;;2.08;1.90;;;6.80;99.90;;;;;;5073028;28;20056;-74
2022/11/14 00:31:40;;;;;;;1.02;0.98;;;6.70;99.90;;;;;;5073224;28;20035;-73
2022/11/14 00:34:06;;;;;;;0.93;0.93;;;6.60;99.90;;;;;;5071803;28;20024;-73
2022/11/14 00:36:32;;;;;;;1.05;0.95;;;6.50;99.90;;;;;;5073005;28;20028;-73
2022/11/14 00:38:58;;;;;;;0.52;0.52;;;6.70;99.90;;;;;;5071513;28;20070;-74
2022/11/14 00:41:24;;;;;;;0.60;0.60;;;6.70;99.90;;;;;;5072979;28;20025;-74
2022/11/14 00:43:49;;;;;;;15.02;5.43;;;6.50;99.90;;;;;;5072794;28;20418;-73
2022/11/14 00:46:15;;;;;;;0.70;0.70;;;6.40;99.90;;;;;;5072789;28;20024;-73
2022/11/14 00:48:41;;;;;;;2.78;2.33;;;6.20;99.90;;;;;;5072845;28;20333;-73
2022/11/14 00:51:07;;;;;;;10.95;3.42;;;6.20;99.90;;;;;;5072844;28;20024;-73
2022/11/14 00:53:32;;;;;;;1.27;1.25;;;6.00;99.90;;;;;;5073045;28;20066;-73
2022/11/14 00:55:58;;;;;;;1.23;1.23;;;6.00;99.90;;;;;;5083074;28;20024;-72
2022/11/14 00:58:23;;;;;;;1.30;1.30;;;6.00;99.90;;;;;;5077150;28;20394;-73
2022/11/14 01:00:50;;;;;;;3.25;1.33;;;6.00;99.90;;;;;;5072763;28;20117;-73
2022/11/14 01:03:15;;;;;;;0.70;0.70;;;6.20;99.90;;;;;;5057664;28;20021;-73
2022/11/14 01:05:49;;;;;;;1.17;1.17;;;6.10;99.90;;;;;;5052883;28;20021;-73
2022/11/14 01:08:17;;;;;;;2.15;1.13;;;6.10;99.90;;;;;;5051255;28;20021;-74
2022/11/14 01:10:45;;;;;;;2.78;2.55;;;6.20;99.90;;;;;;5052315;28;20029;-74
2022/11/14 01:13:11;;;;;;;0.88;0.88;;;6.30;99.90;;;;;;5052341;28;20479;-73
2022/11/14 01:15:41;;;;;;;1.52;1.42;;;6.30;99.90;;;;;;5052547;28;20029;-74
2022/11/14 01:18:10;;;;;;;2.97;2.15;;;6.50;99.90;;;;;;5052349;28;20025;-73
2022/11/14 01:20:41;;;;;;;0.60;0.60;;;6.40;99.90;;;;;;5051059;28;20028;-73
2022/11/14 01:23:08;;;;;;;0.68;0.68;;;6.30;99.90;;;;;;5052258;28;20056;-73
2022/11/14 01:25:35;;;;;;;1.42;1.33;;;6.30;99.90;;;;;;5052046;28;20524;-73
2022/11/14 01:28:01;;;;;;;1.40;1.40;;;6.30;99.90;;;;;;5051904;28;20043;-73
2022/11/14 01:30:26;;;;;;;4.30;2.13;;;6.40;99.90;;;;;;5052032;28;20021;-73
2022/11/14 01:32:52;;;;;;;0.95;0.93;;;6.60;99.90;;;;;;5051004;28;20134;-73
2022/11/14 01:35:17;;;;;;;2.85;2.75;;;6.60;99.90;;;;;;5051989;28;20035;-73
2022/11/14 01:37:43;;;;;;;0.50;0.50;;;6.70;99.90;;;;;;5051720;28;20091;-73
2022/11/14 01:40:09;;;;;;;0.70;0.70;;;6.60;99.90;;;;;;5051952;28;20093;-73
2022/11/14 01:42:35;;;;;;;1.67;1.58;;;6.50;99.90;;;;;;5052044;28;20386;-73
2022/11/14 01:45:00;;;;;;;1.98;1.98;;;6.40;99.90;;;;;;5051917;28;20029;-73
2022/11/14 01:47:29;;;;;;;0.68;0.68;;;6.30;99.90;;;;;;5051680;28;20025;-73
2022/11/14 01:49:59;;;;;;;0.60;0.60;;;6.30;99.90;;;;;;5051914;28;20028;-73
2022/11/14 01:52:29;;;;;;;0.70;0.70;;;6.30;99.90;;;;;;5051815;28;20174;-73
2022/11/14 01:54:58;;;;;;;0.70;0.70;;;6.30;99.90;;;;;;5051746;28;20021;-72
2022/11/14 01:57:28;;;;;;;0.60;0.60;;;6.30;99.90;;;;;;5057830;28;20033;-73
2022/11/14 01:59:57;;;;;;;0.80;0.80;;;6.30;99.90;;;;;;5071796;28;20611;-73
2022/11/14 02:02:24;;;;;;;1.70;1.67;;;6.30;99.90;;;;;;5064734;28;20033;-73
2022/11/14 02:04:59;;;;;;;2.55;2.35;;;6.20;99.90;;;;;;5051257;28;20032;-72
2022/11/14 02:07:27;;;;;;;1.17;1.15;;;6.40;99.90;;;;;;5050958;28;20449;-72
2022/11/14 02:09:54;;;;;;;2.65;2.45;;;6.30;99.90;;;;;;5051483;28;20372;-73
2022/11/14 02:12:20;;;;;;;0.70;0.70;;;6.20;99.90;;;;;;5051504;28;20032;-73
2022/11/14 02:14:48;;;;;;;1.95;1.85;;;6.30;99.90;;;;;;5050061;28;20021;-73
2022/11/14 02:17:15;;;;;;;1.00;1.00;;;6.20;99.90;;;;;;5051364;28;20025;-73
2022/11/14 02:19:41;;;;;;;0.80;0.80;;;6.10;99.90;;;;;;5049983;28;20029;-73
2022/11/14 02:22:06;;;;;;;2.03;1.90;;;6.20;99.90;;;;;;5050104;28;20566;-73
2022/11/14 02:24:32;;;;;;;1.50;1.40;;;6.30;99.90;;;;;;5051207;28;20028;-73
2022/11/14 02:26:58;;;;;;;0.68;0.68;;;6.40;99.90;;;;;;5049794;28;20032;-73
2022/11/14 02:29:23;;;;;;;7.68;7.22;;;6.40;99.90;;;;;;5050054;28;20041;-73
2022/11/14 02:31:49;;;;;;;0.70;0.70;;;6.30;99.90;;;;;;5051289;28;20490;-74
2022/11/14 02:34:18;;;;;;;0.77;0.77;;;6.20;99.90;;;;;;5049797;28;20456;-74
2022/11/14 02:36:44;;;;;;;2.00;1.90;;;6.20;99.90;;;;;;5051249;28;20354;-74
2022/11/14 02:39:09;;;;;;;1.05;1.05;;;6.10;99.90;;;;;;5051106;28;20033;-73
2022/11/14 02:41:35;;;;;;;0.80;0.80;;;6.00;99.90;;;;;;5051326;28;20025;-73
2022/11/14 02:44:00;;;;;;;1.88;1.77;;;6.00;99.90;;;;;;5049880;28;20029;-73
2022/11/14 02:46:26;;;;;;;2.88;2.38;;;6.00;99.90;;;;;;5051141;28;20383;-74
2022/11/14 02:48:51;;;;;;;0.85;0.85;;;6.00;99.90;;;;;;5050820;28;20033;-73
2022/11/14 02:51:17;;;;;;;0.90;0.90;;;6.00;99.90;;;;;;5051092;28;20028;-74
2022/11/14 02:53:42;;;;;;;0.90;0.90;;;6.00;99.90;;;;;;5049714;28;20435;-74
2022/11/14 02:56:08;;;;;;;0.70;0.70;;;6.00;99.90;;;;;;5051835;28;20040;-73
2022/11/14 02:58:33;;;;;;;1.17;1.17;;;5.90;99.90;;;;;;5066584;28;20031;-73
2022/11/14 03:00:59;;;;;;;0.80;0.80;;;5.90;99.90;;;;;;5069870;28;20039;-73
2022/11/14 03:03:24;;;;;;;2.08;1.98;;;5.80;99.90;;;;;;5055598;28;20490;-74
2022/11/14 03:05:52;;;;;;;3.38;3.28;;;5.80;99.90;;;;;;5051405;28;20561;-74
2022/11/14 03:08:18;;;;;;;2.67;2.55;;;5.80;99.90;;;;;;5052910;28;20017;-75
2022/11/14 03:10:44;;;;;;;1.05;1.05;;;5.80;99.90;;;;;;5052470;28;20017;-73
2022/11/14 03:13:09;;;;;;;0.77;0.77;;;5.70;99.90;;;;;;5052467;28;20040;-74
2022/11/14 03:15:38;;;;;;;0.93;0.93;;;5.60;99.90;;;;;;5052490;28;20418;-73
2022/11/14 03:18:03;;;;;;;2.88;2.78;;;5.70;99.90;;;;;;5054186;28;20036;-73
2022/11/14 03:20:29;;;;;;;1.85;1.27;;;5.70;99.90;;;;;;5067117;28;20029;-75
2022/11/14 03:22:55;;;;;;;2.40;2.30;;;5.60;99.90;;;;;;5084672;28;20389;-73
2022/11/14 03:25:20;;;;;;;0.93;0.93;;;5.60;99.90;;;;;;5089875;28;20028;-73
2022/11/14 03:27:46;;;;;;;1.08;1.08;;;5.60;99.90;;;;;;5078694;28;20031;-74
2022/11/14 03:30:12;;;;;;;2.92;2.50;;;5.50;99.90;;;;;;5074516;28;20020;-74
2022/11/14 03:32:37;;;;;;;1.08;1.08;;;5.50;99.90;;;;;;5061073;28;20124;-74
2022/11/14 03:35:03;;;;;;;0.80;0.80;;;5.60;99.90;;;;;;5074639;28;20027;-74
2022/11/14 03:37:29;;;;;;;1.13;1.13;;;5.60;99.90;;;;;;5076285;28;20024;-74
2022/11/14 03:39:54;;;;;;;0.80;0.80;;;5.50;99.90;;;;;;5074200;28;20391;-74
2022/11/14 03:42:20;;;;;;;7.40;7.07;;;5.50;99.90;;;;;;5074160;28;20029;-74
2022/11/14 03:44:45;;;;;;;1.00;1.00;;;5.40;99.90;;;;;;5072661;28;20028;-74
2022/11/14 03:47:11;;;;;;;0.90;0.90;;;5.40;99.90;;;;;;5072393;28;20029;-73
2022/11/14 03:49:36;;;;;;;0.90;0.90;;;5.40;99.90;;;;;;5074017;28;20024;-74
2022/11/14 03:52:02;;;;;;;1.17;1.17;;;5.40;99.90;;;;;;5073947;28;20021;-73
2022/11/14 03:54:27;;;;;;;1.50;1.50;;;5.40;99.90;;;;;;5072685;28;20104;-74
2022/11/14 03:56:53;;;;;;;1.15;1.15;;;5.40;99.90;;;;;;5073549;28;20044;-73
2022/11/14 03:59:18;;;;;;;6.45;3.53;;;5.40;99.90;;;;;;5073961;28;20389;-72
2022/11/14 04:01:44;;;;;;;0.90;0.90;;;5.30;99.90;;;;;;5076982;28;20031;-72
2022/11/14 04:04:13;;;;;;;1.10;1.10;;;5.30;99.90;;;;;;5062027;28;20041;-72
2022/11/14 04:06:39;;;;;;;1.15;1.15;;;5.30;99.90;;;;;;5073576;28;20486;-72
2022/11/14 04:09:05;;;;;;;0.90;0.90;;;5.20;99.90;;;;;;5073508;28;20154;-71
2022/11/14 04:11:31;;;;;;;1.35;1.35;;;5.30;99.90;;;;;;5073590;28;20032;-71
2022/11/14 04:13:56;;;;;;;1.10;1.10;;;5.30;99.90;;;;;;5073555;28;20035;-72
2022/11/14 04:16:22;;;;;;;1.00;1.00;;;5.30;99.90;;;;;;5072010;28;20482;-72
2022/11/14 04:18:47;;;;;;;1.48;1.48;;;5.30;99.90;;;;;;5073280;28;20513;-72
2022/11/14 04:21:13;;;;;;;1.40;1.30;;;5.40;99.90;;;;;;5073372;28;20066;-73
2022/11/14 04:23:38;;;;;;;1.00;1.00;;;5.40;99.90;;;;;;5073555;28;20058;-72
2022/11/14 04:26:04;;;;;;;1.10;1.10;;;5.40;99.90;;;;;;5073091;28;20029;-72
2022/11/14 04:28:29;;;;;;;0.90;0.90;;;5.40;99.90;;;;;;5072541;28;20382;-72
2022/11/14 04:30:55;;;;;;;1.00;1.00;;;5.40;99.90;;;;;;5072933;28;20035;-73
2022/11/14 04:33:20;;;;;;;1.13;1.13;;;5.40;99.90;;;;;;5071976;28;20024;-72
2022/11/14 04:35:47;;;;;;;1.10;1.10;;;5.40;99.90;;;;;;5072969;28;20024;-73
2022/11/14 04:38:12;;;;;;;1.05;1.05;;;5.40;99.90;;;;;;5072867;28;20039;-74
2022/11/14 04:40:38;;;;;;;1.20;1.20;;;5.40;99.90;;;;;;5073016;28;20103;-73
2022/11/14 04:43:03;;;;;;;2.03;1.42;;;5.50;99.90;;;;;;5073094;28;20478;-73
2022/11/14 04:45:29;;;;;;;1.35;1.35;;;5.40;99.90;;;;;;5072647;28;20474;-73
2022/11/14 04:47:54;;;;;;;1.00;1.00;;;5.50;99.90;;;;;;5071457;28;20020;-73
2022/11/14 04:50:20;;;;;;;1.20;1.20;;;5.40;99.90;;;;;;5073309;28;20370;-73
2022/11/14 04:52:46;;;;;;;1.13;1.13;;;5.40;99.90;;;;;;5071519;28;20020;-73
2022/11/14 04:55:11;;;;;;;3.50;3.40;;;5.30;99.90;;;;;;5069553;28;20224;-72
2022/11/14 04:57:37;;;;;;;1.00;1.00;;;5.30;99.90;;;;;;5073049;28;20037;-72
2022/11/14 05:00:03;;;;;;;1.00;1.00;;;5.30;99.90;;;;;;5052502;28;20039;-72
2022/11/14 05:02:32;;;;;;;1.73;1.73;;;5.30;99.90;;;;;;5063791;28;20486;-73
2022/11/14 05:04:57;;;;;;;1.52;1.52;;;5.30;99.90;;;;;;5072348;28;20437;-73
2022/11/14 05:07:23;;;;;;;1.00;1.00;;;5.30;99.90;;;;;;5068457;28;20032;-73
2022/11/14 05:09:48;;;;;;;1.08;1.08;;;5.30;99.90;;;;;;5087404;28;20012;-73
2022/11/14 05:12:14;;;;;;;1.25;1.25;;;5.30;99.90;;;;;;5071129;28;20017;-73
2022/11/14 05:14:39;;;;;;;4.43;3.83;;;5.30;99.90;;;;;;5075728;28;20036;-73
2022/11/14 05:17:05;;;;;;;1.10;1.10;;;5.30;99.90;;;;;;5073070;28;20020;-74
2022/11/14 05:19:31;;;;;;;1.55;1.55;;;5.30;99.90;;;;;;5071800;28;20023;-74
2022/11/14 05:21:56;;;;;;;1.27;1.27;;;5.40;99.90;;;;;;5075615;28;20039;-73
2022/11/14 05:24:22;;;;;;;1.88;1.77;;;5.30;99.90;;;;;;5075746;28;20035;-73
2022/11/14 05:26:47;;;;;;;1.08;1.08;;;5.30;99.90;;;;;;5052105;28;20466;-74
2022/11/14 05:29:13;;;;;;;2.00;1.90;;;5.30;99.90;;;;;;5065734;28;20068;-74
2022/11/14 05:31:38;;;;;;;1.30;1.30;;;5.20;99.90;;;;;;5059694;28;20021;-73
2022/11/14 05:34:04;;;;;;;1.20;1.20;;;5.10;99.90;;;;;;5071456;28;20525;-73
2022/11/14 05:36:29;;;;;;;1.30;1.30;;;5.10;99.90;;;;;;5052043;28;20501;-73
2022/11/14 05:38:55;;;;;;;1.25;1.25;;;5.10;99.90;;;;;;5065311;28;20036;-74
2022/11/14 05:41:20;;;;;;;1.20;1.20;;;5.20;99.90;;;;;;5058267;28;20066;-74
2022/11/14 05:43:46;;;;;;;1.30;1.30;;;5.30;99.90;;;;;;5058507;28;20044;-72
2022/11/14 05:46:14;;;;;;;2.00;1.92;;;5.40;99.90;;;;;;5084105;28;20024;-72
2022/11/14 05:48:40;;;;;;;1.83;1.75;;;5.30;99.90;;;;;;5061747;28;20025;-72
2022/11/14 05:51:08;;;;;;;1.65;1.65;;;5.30;99.90;;;;;;5084891;28;20027;-72
2022/11/14 05:53:34;;;;;;;1.80;1.80;;;5.30;99.90;;;;;;5075702;28;20065;-72
2022/11/14 05:56:04;;;;;;;1.60;1.58;;;5.30;99.90;;;;;;5070329;28;20122;-72
2022/11/14 05:58:31;;;;;;;1.40;1.40;;;5.20;99.90;;;;;;5071325;28;20037;-72
2022/11/14 06:01:07;;;;;;;1.50;1.50;;;5.30;99.90;;;;;;5071498;28;20027;-72
2022/11/14 06:03:33;;;;;;;;;;;5.20;99.90;;;;;;5065999;28;20048;-73
2022/11/14 06:06:03;;;;;;;;;;;5.20;99.90;;;;;;5068734;28;20008;-73
2022/11/14 06:08:29;;;;;;;1.30;1.30;;;5.20;99.90;;;;;;5052402;28;20309;-73
2022/11/14 06:11:00;;;;;;;1.40;1.40;;;5.10;99.90;;;;;;5049385;28;20025;-73
2022/11/14 06:13:25;;;;;;;1.40;1.40;;;5.10;99.90;;;;;;5050944;28;20025;-72
2022/11/14 06:15:51;;;;;;;1.50;1.50;;;5.10;99.90;;;;;;5051092;28;20062;-74
2022/11/14 06:18:16;;;;;;;1.40;1.40;;;4.90;99.90;;;;;;5069334;28;20071;-73
2022/11/14 06:20:42;;;;;;;1.60;1.60;;;4.80;99.90;;;;;;5071523;28;20039;-74
2022/11/14 06:23:07;;;;;;;1.45;1.45;;;4.80;99.90;;;;;;5071332;28;20028;-74
2022/11/14 06:25:33;;;;;;;3.20;3.10;;;4.70;99.90;;;;;;5060442;28;20029;-74
2022/11/14 06:27:58;;;;;;;2.33;2.22;;;4.60;99.90;;;;;;5068883;28;20105;-74
2022/11/14 06:30:24;;;;;;;1.73;1.73;;;4.50;99.90;;;;;;5071357;28;20025;-74
2022/11/14 06:32:55;;;;;;;1.73;1.73;;;4.40;99.90;;;;;;5071267;28;20028;-75
2022/11/14 06:35:20;;;;;;;2.40;2.30;;;4.20;99.90;;;;;;5070323;28;20504;-74
2022/11/14 06:37:46;;;;;;;1.52;1.52;;;4.20;99.90;;;;;;5069598;28;20028;-74
2022/11/14 06:40:11;;;;;;;2.20;2.20;;;4.10;99.90;;;;;;5071350;28;20035;-74
2022/11/14 06:42:37;;;;;;;1.80;1.80;;;4.10;99.90;;;;;;5069797;28;20028;-74
2022/11/14 06:45:03;;;;;;;2.55;2.45;;;4.10;99.90;;;;;;5071100;28;20040;-74
2022/11/14 06:47:28;;;;;;;3.67;3.50;;;4.00;99.90;;;;;;5065151;28;20417;-71
2022/11/14 06:49:54;;;;;;;2.05;2.00;;;4.10;99.90;;;;;;5051176;28;20593;-74
2022/11/14 06:52:19;;;;;;;4.45;3.53;;;4.20;99.90;;;;;;5052226;28;20024;-75
2022/11/14 06:54:45;;;;;;;1.65;1.65;;;4.10;99.90;;;;;;5076909;28;20023;-75
2022/11/14 06:57:10;;;;;;;2.10;2.10;;;4.10;99.90;;;;;;5076479;28;20036;-74
2022/11/14 06:59:36;;;;;;;1.40;1.40;;;4.00;99.90;;;;;;5064437;28;20049;-74
2022/11/14 07:02:02;;;;;;;2.10;2.03;;;4.00;99.90;;;;;;5058540;28;20064;-74
2022/11/14 07:04:27;;;;;;;1.80;1.80;;;4.00;99.90;;;;;;5053641;28;20021;-74
2022/11/14 07:06:53;;;;;;;3.03;2.92;;;4.00;99.90;;;;;;5053197;28;20386;-74
2022/11/14 07:09:18;;;;;;;1.60;1.60;;;4.00;99.90;;;;;;5076705;28;20039;-75
2022/11/14 07:11:45;;;;;;;1.75;1.75;;;4.00;99.90;;;;;;5061253;28;20032;-74
2022/11/14 07:14:11;;;;;;;2.35;2.25;;;3.90;99.90;;;;;;5064192;28;20028;-74
2022/11/14 07:16:37;;;;;;;40.53;37.00;;;3.90;99.90;;;;;;5067936;28;20028;-74
2022/11/14 07:19:05;;;;;;;6.10;5.72;;;3.90;99.90;;;;;;5064168;28;20017;-74
2022/11/14 07:21:32;;;;;;;2.88;2.78;;;4.00;99.90;;;;;;5067924;28;20033;-74
2022/11/14 07:23:58;;;;;;;1.80;1.80;;;4.00;99.90;;;;;;5074647;28;20033;-74
2022/11/14 07:26:24;;;;;;;2.42;2.33;;;4.00;99.90;;;;;;5060927;28;20074;-74
2022/11/14 07:28:49;;;;;;;4.72;4.53;;;4.00;99.90;;;;;;5063451;28;20032;-74
2022/11/14 07:31:17;;;;;;;2.47;2.38;;;3.90;99.90;;;;;;5058325;28;20576;-74
2022/11/14 07:33:43;;;;;;;1.90;1.90;;;4.00;99.90;;;;;;5063446;28;20502;-74
2022/11/14 07:36:10;;;;;;;2.00;2.00;;;4.00;99.90;;;;;;5074781;28;20029;-74
2022/11/14 07:38:37;;;;;;;1.85;1.85;;;4.00;99.90;;;;;;5089446;28;20024;-74
2022/11/14 07:41:09;;;;;;;5.07;2.15;;;4.00;99.90;;;;;;5076298;28;20098;-74
2022/11/14 07:43:34;;;;;;;1.70;1.70;;;4.10;99.90;;;;;;5073992;28;20401;-74
2022/11/14 07:46:02;;;;;;;1.75;1.75;;;4.20;99.90;;;;;;5072857;28;20032;-74
2022/11/14 07:48:29;;;;;;;2.67;2.58;;;4.30;99.90;;;;;;5073707;28;20036;-74
2022/11/14 07:51:02;;;;;;;2.17;2.15;;;4.30;99.90;;;;;;5073657;28;20429;-73
2022/11/14 07:53:28;;;;;;;7.00;2.45;;;4.30;99.90;;;;;;5073050;28;20020;-74
2022/11/14 07:55:54;;;;;;;2.22;2.13;;;4.40;99.90;;;;;;5072953;28;20036;-74
2022/11/14 07:58:20;;;;;;;3.05;2.80;;;4.40;99.90;;;;;;5072093;28;20520;-74
2022/11/14 08:00:45;;;;;;;3.28;3.08;;;4.40;99.90;;;;;;5071234;28;20107;-74
2022/11/14 08:03:11;;;;;;;2.33;2.22;;;4.40;99.90;;;;;;5071902;28;20036;-74
2022/11/14 08:05:36;;;;;;;2.53;2.42;;;4.30;99.90;;;;;;5072918;28;20023;-73
2022/11/14 08:08:03;;;;;;;2.30;2.20;;;4.30;99.90;;;;;;5073484;28;20074;-74
2022/11/14 08:10:29;;;;;;;7.95;7.55;;;4.40;99.90;;;;;;5072531;28;20028;-74
2022/11/14 08:13:03;;;;;;;2.35;2.25;;;4.40;99.90;;;;;;5072207;28;20074;-74
2022/11/14 08:15:30;;;;;;;3.03;2.80;;;4.50;99.90;;;;;;5069338;28;20478;-73
2022/11/14 08:17:59;;;;;;;9.05;8.50;;;4.50;99.90;;;;;;5071954;28;20039;-74
2022/11/14 08:20:26;;;;;;;4.07;3.97;;;4.50;99.90;;;;;;5072031;28;20433;-74
2022/11/14 08:22:52;;;;;;;2.45;2.35;;;4.50;99.90;;;;;;5073305;28;20031;-74
2022/11/14 08:25:18;;;;;;;3.17;3.08;;;4.50;99.90;;;;;;5073297;28;20036;-74
2022/11/14 08:27:43;;;;;;;2.53;2.42;;;4.60;99.90;;;;;;5071304;28;20016;-74
2022/11/14 08:30:10;;;;;;;2.30;2.20;;;4.70;99.90;;;;;;5069535;28;20489;-74
2022/11/14 08:32:35;;;;;;;2.35;2.25;;;4.80;99.90;;;;;;5072990;28;20029;-74
2022/11/14 08:35:01;;;;;;;2.53;2.42;;;4.90;99.90;;;;;;5073145;28;20367;-74
2022/11/14 08:37:26;;;;;;;2.13;2.10;;;4.90;99.90;;;;;;5066816;28;20029;-74
2022/11/14 08:39:52;;;;;;;2.40;2.30;;;4.90;99.90;;;;;;5071203;28;20512;-75
2022/11/14 08:42:17;;;;;;;4.18;3.88;;;4.80;99.90;;;;;;5072964;28;20024;-74
2022/11/14 08:44:43;;;;;;;4.55;3.53;;;4.90;99.90;;;;;;5072869;28;20032;-74
2022/11/14 08:47:08;;;;;;;3.00;2.90;;;4.90;99.90;;;;;;5071609;28;20107;-74
2022/11/14 08:49:34;;;;;;;4.70;4.40;;;4.90;99.90;;;;;;5068082;28;20021;-74
2022/11/14 08:52:00;;;;;;;5.10;3.55;;;4.90;99.90;;;;;;5080086;28;20028;-74
2022/11/14 08:54:25;;;;;;;5.72;5.38;;;4.90;99.90;;;;;;5071884;28;20023;-74
2022/11/14 08:56:51;;;;;;;3.30;3.20;;;4.90;99.90;;;;;;5069123;28;20028;-75
2022/11/14 08:59:16;;;;;;;2.90;2.80;;;5.00;99.90;;;;;;5067097;28;20021;-75
2022/11/14 09:01:42;;;;;;;2.97;2.88;;;5.10;99.90;;;;;;5070336;28;20078;-74
2022/11/14 09:04:07;;;;;;;3.28;3.17;;;5.00;99.90;;;;;;5071068;28;20067;-75
2022/11/14 09:06:33;;;;;;;5.05;4.65;;;5.10;99.90;;;;;;5071047;28;20024;-74
2022/11/14 09:08:59;;;;;;;4.63;3.58;;;5.20;99.90;;;;;;5057840;28;20100;-75
2022/11/14 09:11:24;;;;;;;3.15;3.05;;;5.30;99.90;;;;;;5067926;28;20074;-73
2022/11/14 09:13:50;;;;;;;4.15;3.88;;;5.50;99.90;;;;;;5072220;28;20054;-75
2022/11/14 09:16:15;;;;;;;5.78;5.43;;;5.60;99.90;;;;;;5068293;28;20390;-75
2022/11/14 09:18:41;;;;;;;5.38;4.95;;;5.60;99.90;;;;;;5070545;28;20024;-75
2022/11/14 09:21:07;;;;;;;6.72;3.30;;;5.60;99.90;;;;;;5070564;28;20033;-75
2022/11/14 09:23:33;;;;;;;2.78;2.67;;;5.70;99.90;;;;;;5063118;28;20136;-76
2022/11/14 09:26:07;;;;;;;3.03;2.92;;;5.80;99.90;;;;;;5059490;28;20553;-75
2022/11/14 09:28:33;;;;;;;3.55;3.45;;;5.80;99.90;;;;;;5062116;28;20033;-74
2022/11/14 09:31:03;;;;;;;3.20;3.10;;;5.80;99.90;;;;;;5067869;28;20383;-75
2022/11/14 09:33:28;;;;;;;4.10;4.00;;;5.90;99.90;;;;;;5072094;28;20489;-75
2022/11/14 09:36:03;;;;;;;3.40;3.30;;;5.90;99.90;;;;;;5058211;28;20040;-75
2022/11/14 09:38:29;;;;;;;5.75;3.28;;;5.90;99.90;;;;;;5061109;28;20029;-75
2022/11/14 09:41:23;;;;;;;2.60;2.50;;;6.00;99.90;;;;;;5065302;28;20605;-75
2022/11/14 09:43:58;;;;;;;4.07;3.95;;;6.00;99.90;;;;;;5065528;28;20040;-75
2022/11/14 09:46:31;;;;;;;7.88;7.32;;;6.10;99.90;;;;;;5060195;28;20025;-76
2022/11/14 09:48:57;;;;;;;2.90;2.80;;;6.20;99.90;;;;;;5068599;28;20025;-75
2022/11/14 09:51:31;;;;;;;2.97;2.88;;;6.30;99.90;;;;;;5060361;28;20017;-75
2022/11/14 09:54:21;;;;;;;3.00;2.90;;;6.30;99.90;;;;;;5071836;28;20017;-75
2022/11/14 09:56:47;;;;;;;2.90;2.80;;;6.40;99.90;;;;;;5056851;28;20028;-75
2022/11/14 09:59:13;;;;;;;3.83;3.72;;;6.50;99.90;;;;;;5064141;28;20028;-74
2022/11/14 10:01:45;;;;;;;2.90;2.80;;;6.60;99.90;;;;;;5065202;28;20059;-75
2022/11/14 10:04:26;;;;;;;2.70;2.60;;;6.60;99.90;;;;;;5059119;28;20059;-75
2022/11/14 10:07:06;;;;;;;2.95;2.85;;;6.70;99.90;;;;;;5058341;28;20020;-75
2022/11/14 10:10:09;;;;;;;2.92;2.83;;;6.70;99.90;;;;;;5058807;28;20028;-74
2022/11/14 10:12:47;;;;;;;5.72;5.43;;;6.80;99.90;;;;;;5055422;28;20022;-75
2022/11/14 10:15:21;;;;;;;2.55;2.45;;;6.80;99.90;;;;;;5071413;28;20021;-75
2022/11/14 10:18:01;;;;;;;3.33;3.22;;;7.00;99.90;;;;;;5070125;28;20044;-74
2022/11/14 10:20:51;;;;;;;2.88;2.72;;;7.40;99.90;;;;;;5071571;28;20142;-75
2022/11/14 10:23:44;;;;;;;3.08;2.97;;;7.60;99.90;;;;;;5058112;28;20021;-74
2022/11/14 10:26:30;;;;;;;2.10;2.10;;;7.90;99.90;;;;;;5070070;28;20030;-74
2022/11/14 10:29:26;;;;;;;3.80;2.72;;;8.20;99.90;;;;;;5061188;28;20024;-75
2022/11/14 10:31:55;;;;;;;1.80;1.80;;;8.50;99.90;;;;;;5066030;28;20443;-74
2022/11/14 10:34:41;;;;;;;1.70;1.70;;;8.60;99.90;;;;;;5071412;28;20033;-75
2022/11/14 10:37:32;;;;;;;1.75;1.75;;;8.60;99.90;;;;;;5055572;28;20028;-75
2022/11/14 10:40:14;;;;;;;2.35;2.03;;;8.70;99.90;;;;;;5074205;28;20059;-75
2022/11/14 10:42:44;;;;;;;1.80;1.80;;;9.00;99.90;;;;;;5070741;28;20057;-75
2022/11/14 10:45:09;;;;;;;2.47;2.38;;;8.90;99.90;;;;;;5053978;28;20025;-75
2022/11/14 10:47:43;;;;;;;3.00;2.78;;;9.00;99.90;;;;;;5073382;28;20493;-74
2022/11/14 10:50:45;;;;;;;13.27;12.20;;;9.20;99.90;;;;;;5075354;28;20044;-75
2022/11/14 10:53:29;;;;;;;3.70;3.42;;;8.90;99.90;;;;;;5062991;28;20383;-76
2022/11/14 10:55:56;;;;;;;3.67;2.20;;;8.80;99.90;;;;;;5063216;28;20397;-74
2022/11/14 10:58:22;;;;;;;2.15;2.05;;;8.80;99.90;;;;;;5074772;28;20020;-75
2022/11/14 11:00:48;;;;;;;3.92;3.53;;;8.60;99.90;;;;;;5075094;28;20122;-74
2022/11/14 11:03:14;;;;;;;2.33;2.22;;;8.60;99.90;;;;;;5059604;28;20029;-75
2022/11/14 11:05:55;;;;;;;5.07;3.45;;;8.60;99.90;;;;;;5054826;28;20398;-74
2022/11/14 11:11:30;;;;;;;5.47;5.18;;;8.90;99.90;;;;;;5063550;28;20110;-75
2022/11/14 11:14:00;;;;;;;1.92;1.92;;;8.90;99.90;;;;;;5054810;28;20021;-75
2022/11/14 11:16:28;;;;;;;2.25;2.15;;;9.00;99.90;;;;;;5054648;28;20048;-75
2022/11/14 11:19:22;;;;;;;2.50;2.38;;;9.00;99.90;;;;;;5054525;28;20068;-74
2022/11/14 11:21:50;;;;;;;1.10;1.10;;;9.40;99.90;;;;;;5054455;28;20513;-75
2022/11/14 11:24:36;;;;;;;1.00;1.00;;;9.30;99.90;;;;;;5054673;28;20082;-75
2022/11/14 11:27:22;;;;;;;1.48;1.48;;;10.00;99.90;;;;;;5054340;28;20028;-75
2022/11/14 11:30:19;;;;;;;1.00;1.00;;;10.20;99.90;;;;;;5054501;28;20057;-75
2022/11/14 11:32:45;;;;;;;1.50;1.40;;;10.40;99.90;;;;;;5070272;28;20414;-75
2022/11/14 11:35:16;;;;;;;1.00;1.00;;;10.60;99.90;;;;;;5074474;28;20119;-75
2022/11/14 11:37:44;;;;;;;0.90;0.90;;;10.50;99.90;;;;;;5072123;28;20131;-75
2022/11/14 11:40:29;;;;;;;1.10;1.10;;;10.40;99.90;;;;;;5074386;28;20025;-75
2022/11/14 11:43:03;;;;;;;2.25;1.92;;;10.60;99.90;;;;;;5071449;28;20013;-75
2022/11/14 11:45:31;;;;;;;0.90;0.90;;;11.00;99.90;;;;;;5073605;28;20048;-75
2022/11/14 11:48:18;;;;;;;3.83;3.55;;;10.80;99.90;;;;;;5073045;28;20009;-75
2022/11/14 11:50:44;;;;;;;1.10;1.10;;;10.90;99.90;;;;;;5067364;28;20079;-75
2022/11/14 11:53:23;;;;;;;0.90;0.90;;;11.10;99.90;;;;;;5056533;28;20029;-75
2022/11/14 11:55:53;;;;;;;0.85;0.85;;;10.90;99.90;;;;;;5070557;28;20039;-74
2022/11/14 11:58:27;;;;;;;1.02;1.02;;;11.00;99.90;;;;;;5084567;28;20102;-74
2022/11/14 12:00:56;;;;;;;0.80;0.80;;;11.30;99.90;;;;;;5071149;28;20108;-75
2022/11/14 12:03:24;;;;;;;0.80;0.80;;;11.00;99.90;;;;;;5057435;28;20029;-75
2022/11/14 12:05:57;;;;;;;0.90;0.90;;;11.10;99.90;;;;;;5053614;28;20021;-76
2022/11/14 12:08:41;;;;;;;0.70;0.70;;;10.80;99.90;;;;;;5055242;28;20024;-75
2022/11/14 12:11:15;;;;;;;0.90;0.90;;;11.00;99.90;;;;;;5073798;28;20126;-74
2022/11/14 12:14:18;;;;;;;1.70;1.70;;;11.10;99.90;;;;;;5073730;28;20099;-75
2022/11/14 12:17:01;;;;;;;0.70;0.70;;;11.40;99.90;;;;;;5060065;28;20025;-74
2022/11/14 12:20:04;;;;;;;0.60;0.60;;;11.20;99.90;;;;;;5060188;28;20025;-74
2022/11/14 12:22:38;;;;;;;0.60;0.60;;;11.30;99.90;;;;;;5061383;28;20032;-74
2022/11/14 12:25:38;;;;;;;0.60;0.60;;;11.30;99.90;;;;;;5059803;28;20062;-75
2022/11/14 12:28:11;;;;;;;1.33;1.23;;;11.60;99.90;;;;;;5059967;28;20429;-74
2022/11/14 12:30:40;;;;;;;1.60;1.50;;;12.00;99.90;;;;;;5061236;28;20104;-74
2022/11/14 12:33:29;;;;;;;0.50;0.50;;;11.90;99.90;;;;;;5066884;28;20056;-76
2022/11/14 12:36:04;;;;;;;1.05;1.05;;;11.60;99.90;;;;;;5068877;28;20490;-75
2022/11/14 12:38:49;;;;;;;0.60;0.60;;;11.60;99.90;;;;;;5071943;28;20071;-75
2022/11/14 12:41:29;;;;;;;1.30;1.20;;;11.60;99.90;;;;;;5059954;28;20508;-75
2022/11/14 12:44:16;;;;;;;0.88;0.75;;;11.70;99.90;;;;;;5059914;28;20045;-74
2022/11/14 12:47:03;;;;;;;0.50;0.50;;;11.90;99.90;;;;;;5048196;28;20127;-75
2022/11/14 12:49:52;;;;;;;3.92;1.45;;;11.70;99.90;;;;;;5059785;28;20070;-75
2022/11/14 12:52:39;;;;;;;0.80;0.80;;;11.60;99.90;;;;;;5046840;28;20033;-74
2022/11/14 12:55:23;;;;;;;0.50;0.50;;;11.50;99.90;;;;;;5059776;28;20104;-75
2022/11/14 12:58:00;;;;;;;2.58;2.45;;;11.60;99.90;;;;;;5072562;28;20037;-74
2022/11/14 13:00:27;;;;;;;0.57;0.57;;;11.60;99.90;;;;;;5055150;28;20112;-75
2022/11/14 13:03:22;;;;;;;1.55;1.52;;;11.90;99.90;;;;;;5056082;28;20397;-75
2022/11/14 13:05:56;;;;;;;2.53;1.85;;;11.90;99.90;;;;;;5044863;28;20036;-75
2022/11/14 13:08:40;;;;;;;0.70;0.70;;;11.90;99.90;;;;;;5056056;28;20024;-75
2022/11/14 13:22:46;;;;;;;0.70;0.70;;;11.90;99.90;;;;;;5071239;28;20071;-75